Time;durP1;ratioP1;P1;durP2;ratioP2;P2;SDS_P1;SDS_P2;PMS_P1;PMS_P2;Temp;Humidity;BMP_temperature;BMP_pressure;BME280_temperature;BME280_humidity;BME280_pressure;Samples;Min_cycle;Max_cycle;Signal;HPM_P1;HPM_P2
2024/02/29 00:00:06;;;;;;;9.02;3.65;;;;;;;13.96;42.29;101481.00;4938329;29;20512;-64
2024/02/29 00:02:32;;;;;;;10.43;3.58;;;;;;;13.97;40.84;101479.19;4921918;29;20057;-64
2024/02/29 00:04:57;;;;;;;7.20;3.50;;;;;;;13.98;42.13;101478.19;4939339;29;20039;-64
2024/02/29 00:07:23;;;;;;;8.07;3.20;;;;;;;13.99;41.23;101471.81;4939265;29;20044;-64
2024/02/29 00:09:48;;;;;;;8.27;3.28;;;;;;;13.98;40.73;101476.38;4938063;29;20040;-64
2024/02/29 00:12:13;;;;;;;8.68;4.03;;;;;;;13.95;41.74;101465.00;4939050;29;20114;-65
2024/02/29 00:14:39;;;;;;;7.72;3.25;;;;;;;13.96;41.80;101474.75;4939060;29;20126;-64
2024/02/29 00:17:05;;;;;;;9.20;3.38;;;;;;;13.94;42.24;101474.91;4937943;29;20444;-65
2024/02/29 00:19:31;;;;;;;12.27;4.57;;;;;;;13.94;41.48;101457.91;4937715;29;20047;-64
2024/02/29 00:21:57;;;;;;;8.95;3.63;;;;;;;13.89;41.07;101457.47;4953776;29;20522;-64
2024/02/29 00:24:22;;;;;;;6.25;3.33;;;;;;;13.91;42.16;101463.56;4937764;29;20118;-64
2024/02/29 00:26:47;;;;;;;7.03;4.22;;;;;;;13.90;41.00;101459.19;4937717;29;20237;-64
2024/02/29 00:29:13;;;;;;;7.20;3.70;;;;;;;13.88;42.07;101464.69;4937542;29;20514;-64
2024/02/29 00:31:44;;;;;;;9.98;4.35;;;;;;;13.89;41.18;101465.53;4937777;29;20473;-64
2024/02/29 00:34:13;;;;;;;9.70;4.70;;;;;;;13.88;41.89;101456.59;4937292;29;20071;-64
2024/02/29 00:36:39;;;;;;;7.20;3.95;;;;;;;13.83;41.38;101455.28;4937510;29;20050;-65
2024/02/29 00:39:06;;;;;;;7.70;4.10;;;;;;;13.79;42.25;101448.50;4937416;29;20032;-65
2024/02/29 00:41:32;;;;;;;7.88;3.65;;;;;;;13.73;42.31;101444.50;4937450;29;20035;-64
2024/02/29 00:43:57;;;;;;;11.65;3.83;;;;;;;13.70;42.43;101438.53;4937288;29;20031;-64
2024/02/29 00:46:23;;;;;;;8.57;4.00;;;;;;;13.70;41.86;101433.13;4938580;29;20036;-64
2024/02/29 00:48:48;;;;;;;10.85;4.38;;;;;;;13.66;41.98;101437.94;4938539;29;20032;-65
2024/02/29 00:51:13;;;;;;;11.13;5.03;;;;;;;13.65;41.63;101440.78;4953292;29;20559;-64
2024/02/29 00:53:39;;;;;;;11.60;4.30;;;;;;;13.61;42.35;101429.41;4938434;29;20027;-64
2024/02/29 00:56:04;;;;;;;12.10;4.32;;;;;;;13.62;42.74;101430.28;4937124;29;20063;-64
2024/02/29 00:58:30;;;;;;;12.57;5.15;;;;;;;13.58;42.60;101423.44;4938327;29;20036;-65
2024/02/29 01:00:55;;;;;;;12.82;4.28;;;;;;;13.61;42.96;101417.78;4937196;29;20488;-64
2024/02/29 01:03:20;;;;;;;14.18;4.28;;;;;;;13.58;43.44;101412.66;4952852;29;20537;-65
2024/02/29 01:05:46;;;;;;;13.10;5.03;;;;;;;13.59;42.91;101419.75;4935875;29;20028;-64
2024/02/29 01:08:11;;;;;;;10.93;4.80;;;;;;;13.58;42.19;101418.06;4938136;29;20038;-64
2024/02/29 01:10:36;;;;;;;9.32;4.30;;;;;;;13.58;42.41;101407.28;4952919;29;20412;-64
2024/02/29 01:13:02;;;;;;;8.75;4.00;;;;;;;13.58;42.24;101412.66;4937037;29;20467;-64
2024/02/29 01:15:28;;;;;;;12.18;4.43;;;;;;;13.59;42.31;101403.63;4952747;29;20058;-64
2024/02/29 01:17:53;;;;;;;8.40;4.07;;;;;;;13.62;43.25;101408.72;4925097;29;20489;-64
2024/02/29 01:20:18;;;;;;;10.82;5.43;;;;;;;13.65;43.07;101411.16;4919123;29;20032;-64
2024/02/29 01:22:44;;;;;;;9.05;3.97;;;;;;;13.61;43.19;101398.94;4917699;29;20029;-64
2024/02/29 01:25:11;;;;;;;8.80;3.35;;;;;;;13.62;43.24;101408.72;4917725;29;20060;-64
2024/02/29 01:27:36;;;;;;;11.60;4.85;;;;;;;13.56;42.40;101398.50;4918846;29;20127;-64
2024/02/29 01:30:02;;;;;;;7.88;3.97;;;;;;;13.52;42.41;101392.53;4918882;29;20474;-64
2024/02/29 01:32:28;;;;;;;12.30;3.92;;;;;;;13.50;42.71;101382.88;4917354;29;20040;-64
2024/02/29 01:34:53;;;;;;;7.40;3.88;;;;;;;13.51;42.49;101384.59;4917621;29;20054;-64
2024/02/29 01:37:18;;;;;;;9.02;3.30;;;;;;;13.51;42.65;101379.22;4901649;29;20044;-64
2024/02/29 01:39:44;;;;;;;8.93;4.15;;;;;;;13.48;42.65;101380.34;4917305;29;20044;-64
2024/02/29 01:42:10;;;;;;;10.85;4.30;;;;;;;13.49;42.21;101381.16;4917405;29;20036;-64
2024/02/29 01:44:45;;;;;;;9.90;3.95;;;;;;;13.47;42.41;101380.44;4918600;29;20032;-64
2024/02/29 01:47:12;;;;;;;8.38;3.97;;;;;;;13.44;43.79;101378.88;4901548;29;20043;-65
2024/02/29 01:49:38;;;;;;;13.35;4.43;;;;;;;13.43;43.38;101370.97;4917238;29;20111;-64
2024/02/29 01:52:04;;;;;;;13.48;5.15;;;;;;;13.41;43.39;101361.16;4918391;29;20056;-64
2024/02/29 01:54:29;;;;;;;9.73;4.45;;;;;;;13.40;42.70;101361.28;4901232;29;20091;-64
2024/02/29 01:56:55;;;;;;;10.80;4.35;;;;;;;13.38;43.81;101353.38;4917117;29;20140;-64
2024/02/29 01:59:21;;;;;;;10.70;4.65;;;;;;;13.38;42.41;101347.97;4917116;29;20033;-65
2024/02/29 02:01:46;;;;;;;11.55;5.38;;;;;;;13.41;43.58;101346.88;4901404;29;20036;-65
2024/02/29 02:04:12;;;;;;;10.32;5.55;;;;;;;13.40;43.73;101348.69;4918283;29;20028;-64
2024/02/29 02:06:37;;;;;;;9.57;4.95;;;;;;;13.40;43.60;101351.38;4916850;29;20122;-65
2024/02/29 02:09:03;;;;;;;14.82;5.40;;;;;;;13.38;43.42;101336.38;4916955;29;20028;-64
2024/02/29 02:11:29;;;;;;;8.70;4.95;;;;;;;13.37;43.43;101335.50;4916975;29;20505;-64
2024/02/29 02:13:54;;;;;;;10.48;4.75;;;;;;;13.37;43.06;101338.19;4917032;29;20118;-64
2024/02/29 02:16:19;;;;;;;9.35;4.25;;;;;;;13.36;44.07;101332.97;4918112;29;20419;-64
2024/02/29 02:18:45;;;;;;;8.77;4.38;;;;;;;13.34;44.23;101322.31;4916431;29;20063;-64
2024/02/29 02:21:10;;;;;;;10.77;5.82;;;;;;;13.35;43.86;101332.09;4918034;29;20033;-64
2024/02/29 02:23:36;;;;;;;11.38;5.15;;;;;;;13.35;43.59;101326.72;4918463;29;20115;-65
2024/02/29 02:26:01;;;;;;;9.48;3.65;;;;;;;13.38;44.43;101318.38;4916641;29;20062;-64
2024/02/29 02:28:27;;;;;;;10.38;4.78;;;;;;;13.41;44.03;101320.81;4917857;29;20083;-63
2024/02/29 02:30:53;;;;;;;9.05;4.95;;;;;;;13.42;42.80;101318.97;4917775;29;20036;-63
2024/02/29 02:33:19;;;;;;;11.43;5.03;;;;;;;13.39;43.91;101317.41;4916535;29;20075;-63
2024/02/29 02:35:44;;;;;;;8.85;4.15;;;;;;;13.39;44.27;101305.78;4915976;29;20052;-64
2024/02/29 02:38:09;;;;;;;14.30;5.15;;;;;;;13.36;44.49;101293.47;4900444;29;20067;-63
2024/02/29 02:40:35;;;;;;;12.93;5.35;;;;;;;13.34;44.38;101287.34;4916483;28;20476;-64
2024/02/29 02:43:01;;;;;;;11.65;4.88;;;;;;;13.35;43.94;101290.88;4917538;29;20028;-63
2024/02/29 02:45:27;;;;;;;10.90;4.68;;;;;;;13.33;44.51;101266.81;4916114;29;20024;-63
2024/02/29 02:47:53;;;;;;;10.50;4.18;;;;;;;13.29;43.75;101254.63;4916222;29;20103;-64
2024/02/29 02:50:18;;;;;;;14.43;4.55;;;;;;;13.27;44.08;101258.44;4917305;29;20126;-63
2024/02/29 02:52:44;;;;;;;7.90;4.32;;;;;;;13.26;44.25;101254.88;4900051;29;20040;-63
2024/02/29 02:55:09;;;;;;;9.20;4.85;;;;;;;13.26;44.70;101249.50;4917153;28;20027;-64
2024/02/29 02:57:34;;;;;;;14.18;4.95;;;;;;;13.28;44.65;101246.69;4918800;29;20028;-63
2024/02/29 03:00:00;;;;;;;8.75;4.05;;;;;;;13.29;44.19;101241.16;4919231;29;20032;-63
2024/02/29 03:02:25;;;;;;;10.43;4.30;;;;;;;13.29;44.02;101235.78;4903800;29;20024;-63
2024/02/29 03:04:50;;;;;;;10.07;4.47;;;;;;;13.30;43.97;101242.88;4900674;29;20111;-63
2024/02/29 03:07:16;;;;;;;11.18;4.70;;;;;;;13.29;44.12;101230.41;4900213;29;20024;-63
2024/02/29 03:09:42;;;;;;;10.63;4.63;;;;;;;13.26;43.96;101222.59;4917044;29;20036;-64
2024/02/29 03:12:07;;;;;;;9.35;4.93;;;;;;;13.24;44.06;101211.13;4915937;29;20378;-63
2024/02/29 03:14:33;;;;;;;11.85;4.57;;;;;;;13.21;44.47;101214.09;4915681;29;20035;-63
2024/02/29 03:16:58;;;;;;;8.45;4.03;;;;;;;13.24;43.46;101213.81;4899947;29;20039;-63
2024/02/29 03:19:23;;;;;;;9.27;4.57;;;;;;;13.25;44.93;101207.47;4916755;29;20151;-64
2024/02/29 03:21:49;;;;;;;9.45;4.32;;;;;;;13.26;44.53;101198.38;4915697;29;20031;-63
2024/02/29 03:24:14;;;;;;;10.80;4.35;;;;;;;13.28;44.84;101203.66;4915853;29;20031;-63
2024/02/29 03:26:39;;;;;;;9.48;4.40;;;;;;;13.31;43.64;101196.16;4915615;29;20031;-63
2024/02/29 03:29:06;;;;;;;8.48;4.22;;;;;;;13.30;43.84;101193.59;4916773;29;20016;-63
2024/02/29 03:31:32;;;;;;;8.60;4.97;;;;;;;13.30;44.84;101194.44;4916392;29;20031;-63
2024/02/29 03:33:57;;;;;;;9.63;4.00;;;;;;;13.27;44.00;101181.28;4934496;29;20060;-63
2024/02/29 03:36:23;;;;;;;11.20;4.72;;;;;;;13.28;44.34;101193.75;4935804;28;20030;-63
2024/02/29 03:38:48;;;;;;;11.25;3.58;;;;;;;13.23;43.37;101179.84;4934548;29;20039;-63
2024/02/29 03:41:13;;;;;;;11.43;3.90;;;;;;;13.22;44.28;101183.53;4935666;29;20039;-63
2024/02/29 03:43:39;;;;;;;10.88;4.72;;;;;;;13.20;44.50;101171.22;4934437;29;20531;-63
2024/02/29 03:46:04;;;;;;;9.48;3.80;;;;;;;13.23;44.73;101177.13;4934659;29;20392;-63
2024/02/29 03:48:29;;;;;;;14.68;4.05;;;;;;;13.21;44.45;101171.06;4934360;29;20145;-63
2024/02/29 03:50:55;;;;;;;8.88;4.13;;;;;;;13.20;45.27;101177.44;4935638;29;20028;-64
2024/02/29 03:53:20;;;;;;;10.65;4.65;;;;;;;13.18;45.37;101168.63;4934396;29;20444;-63
2024/02/29 03:55:48;;;;;;;8.90;4.43;;;;;;;13.18;45.12;101162.41;4934435;29;20522;-63
2024/02/29 03:58:13;;;;;;;11.90;3.85;;;;;;;13.19;45.36;101159.59;4934214;29;20034;-63
2024/02/29 04:00:39;;;;;;;7.63;4.07;;;;;;;13.18;45.66;101157.88;4935524;29;20123;-63
2024/02/29 04:03:04;;;;;;;7.20;3.33;;;;;;;13.21;44.58;101144.16;4934296;29;20046;-63
2024/02/29 04:05:29;;;;;;;6.22;3.65;;;;;;;13.25;45.63;101148.28;4934268;29;20027;-63
2024/02/29 04:08:00;;;;;;;5.72;3.78;;;;;;;13.27;44.46;101140.06;4934310;28;20040;-63
2024/02/29 04:10:27;;;;;;;6.75;4.00;;;;;;;13.30;44.17;101140.63;4934398;29;20043;-63
2024/02/29 04:12:53;;;;;;;7.38;3.35;;;;;;;13.33;45.52;101144.88;4935319;29;20032;-63
2024/02/29 04:15:18;;;;;;;5.28;3.22;;;;;;;13.35;44.22;101142.91;4934184;29;20098;-63
2024/02/29 04:17:43;;;;;;;7.18;3.58;;;;;;;13.35;44.44;101143.75;4935421;28;20038;-63
2024/02/29 04:20:09;;;;;;;9.35;3.63;;;;;;;13.34;45.12;101142.03;4935398;29;20511;-63
2024/02/29 04:22:34;;;;;;;6.82;2.70;;;;;;;13.35;44.72;101137.53;4950042;29;20398;-63
2024/02/29 04:25:00;;;;;;;6.55;3.38;;;;;;;13.38;44.90;101140.78;4935598;28;20069;-63
2024/02/29 04:27:25;;;;;;;7.82;4.32;;;;;;;13.40;45.18;101141.50;4934171;29;20090;-63
2024/02/29 04:29:50;;;;;;;6.78;3.38;;;;;;;13.43;46.09;101131.47;4934069;29;20043;-63
2024/02/29 04:32:16;;;;;;;12.57;4.30;;;;;;;13.45;46.01;101132.16;4935147;29;20554;-63
2024/02/29 04:34:41;;;;;;;6.65;3.50;;;;;;;13.48;45.28;101137.28;4949787;29;20044;-63
2024/02/29 04:37:07;;;;;;;9.80;4.22;;;;;;;13.54;44.48;101125.94;4918208;29;20036;-63
2024/02/29 04:39:33;;;;;;;12.65;3.78;;;;;;;13.56;45.88;101129.34;4949792;28;20040;-63
2024/02/29 04:41:58;;;;;;;6.50;3.70;;;;;;;13.57;45.98;101126.50;4935875;29;20036;-63
2024/02/29 04:44:24;;;;;;;11.15;3.13;;;;;;;13.55;45.71;101124.94;4937466;29;20391;-63
2024/02/29 04:46:49;;;;;;;9.82;3.75;;;;;;;13.64;45.18;101129.47;4937329;29;20036;-64
2024/02/29 04:49:14;;;;;;;10.00;4.03;;;;;;;13.66;45.34;101128.34;4937425;29;20175;-63
2024/02/29 04:51:40;;;;;;;9.77;3.97;;;;;;;13.66;45.92;101111.34;4937621;29;20038;-64
2024/02/29 04:54:05;;;;;;;6.90;3.60;;;;;;;13.69;46.62;101114.59;4937276;29;20407;-63
2024/02/29 04:56:31;;;;;;;7.07;3.78;;;;;;;13.72;46.49;101108.94;4937357;29;20028;-64
2024/02/29 04:58:56;;;;;;;7.40;4.20;;;;;;;13.74;45.53;101108.78;4937021;29;20119;-63
2024/02/29 05:01:22;;;;;;;7.43;3.75;;;;;;;13.76;45.82;101114.91;4938307;29;20039;-64
2024/02/29 05:03:47;;;;;;;5.93;3.42;;;;;;;13.79;46.34;101110.06;4937042;29;20039;-64
2024/02/29 05:06:16;;;;;;;9.70;4.13;;;;;;;13.76;46.17;101094.19;4938267;29;20035;-64
2024/02/29 05:08:42;;;;;;;6.97;3.45;;;;;;;13.86;46.68;101099.56;4938411;28;20044;-63
2024/02/29 05:11:08;;;;;;;7.82;3.67;;;;;;;13.83;46.23;101091.78;4937072;29;20488;-63
2024/02/29 05:13:34;;;;;;;9.15;3.95;;;;;;;13.89;46.83;101094.75;4936816;29;20047;-64
2024/02/29 05:15:59;;;;;;;9.02;3.65;;;;;;;13.93;45.96;101090.75;4936732;29;20024;-63
2024/02/29 05:18:26;;;;;;;7.40;3.67;;;;;;;13.91;46.49;101081.13;4938089;28;20071;-63
2024/02/29 05:20:52;;;;;;;15.02;4.80;;;;;;;13.94;46.63;101080.84;4936713;29;20507;-63
2024/02/29 05:23:18;;;;;;;10.32;4.20;;;;;;;13.93;45.87;101081.88;4936809;29;20036;-63
2024/02/29 05:25:43;;;;;;;5.35;2.97;;;;;;;14.00;45.61;101091.91;4936707;29;20039;-63
2024/02/29 05:28:09;;;;;;;9.70;3.78;;;;;;;14.02;46.28;101083.66;4936760;29;20036;-64
2024/02/29 05:30:34;;;;;;;11.30;4.43;;;;;;;14.03;46.35;101079.97;4936732;29;20039;-63
2024/02/29 05:32:59;;;;;;;6.38;3.03;;;;;;;14.07;46.57;101081.38;4936650;29;20521;-63
2024/02/29 05:35:25;;;;;;;10.68;4.07;;;;;;;14.10;45.94;101067.63;4936397;29;20046;-63
2024/02/29 05:37:51;;;;;;;8.13;3.70;;;;;;;14.12;46.00;101072.88;4937542;29;20091;-63
2024/02/29 05:40:16;;;;;;;10.80;3.47;;;;;;;14.11;45.80;101068.47;4936347;29;20407;-64
2024/02/29 05:42:41;;;;;;;8.32;4.20;;;;;;;14.09;46.36;101052.47;4936441;29;20034;-63
2024/02/29 05:45:08;;;;;;;8.35;4.13;;;;;;;14.10;45.60;101064.09;4937729;29;20036;-63
2024/02/29 05:47:33;;;;;;;7.95;3.88;;;;;;;14.10;45.94;101064.91;4936330;29;20071;-63
2024/02/29 05:49:59;;;;;;;9.43;3.65;;;;;;;14.08;45.46;101050.75;4936237;29;20078;-64
2024/02/29 05:52:24;;;;;;;9.73;4.32;;;;;;;14.11;45.61;101060.38;4936524;29;20075;-64
2024/02/29 05:54:49;;;;;;;10.20;4.50;;;;;;;14.06;47.01;101042.00;4935342;29;20071;-63
2024/02/29 05:57:15;;;;;;;7.63;4.43;;;;;;;14.08;46.26;101048.06;4944979;29;20032;-63
2024/02/29 05:59:40;;;;;;;8.45;4.25;;;;;;;14.11;46.96;101045.09;4936421;29;20102;-63
2024/02/29 06:02:05;;;;;;;12.00;4.55;;;;;;;14.10;47.21;101043.38;4936227;29;20046;-63
2024/02/29 06:04:31;;;;;;;12.23;4.00;;;;;;;14.14;46.18;101050.19;4937498;29;20059;-64
2024/02/29 06:06:56;;;;;;;11.18;4.50;;;;;;;14.16;45.98;101048.19;4937144;29;20404;-63
2024/02/29 06:09:21;;;;;;;9.48;5.10;;;;;;;14.20;46.12;101044.22;4920551;29;20424;-64
2024/02/29 06:11:47;;;;;;;10.38;4.35;;;;;;;14.22;47.40;101052.97;4936439;29;20432;-63
2024/02/29 06:14:13;;;;;;;10.65;4.35;;;;;;;14.22;47.36;101044.03;4936272;29;20056;-64
2024/02/29 06:16:39;;;;;;;8.43;4.45;;;;;;;14.19;46.89;101042.50;4935647;29;20059;-63
2024/02/29 06:19:04;;;;;;;9.48;4.45;;;;;;;14.15;45.93;101041.13;4937256;29;20492;-64
2024/02/29 06:21:30;;;;;;;12.13;4.57;;;;;;;14.14;45.85;101038.56;4935841;29;20047;-64
2024/02/29 06:23:55;;;;;;;11.93;5.47;;;;;;;14.09;45.78;101033.63;4919877;29;20071;-62
2024/02/29 06:26:20;;;;;;;11.30;5.22;;;;;;;14.06;47.74;101025.81;4937076;29;20040;-64
2024/02/29 06:28:46;;;;;;;6.60;4.38;;;;;;;14.08;47.46;101029.22;4919604;29;20027;-64
2024/02/29 06:31:12;;;;;;;7.97;4.15;;;;;;;14.06;46.73;101025.81;4936865;29;20031;-63
2024/02/29 06:33:37;;;;;;;8.93;4.68;;;;;;;14.08;47.08;101033.75;4919308;29;20126;-64
2024/02/29 06:36:06;;;;;;;10.10;4.68;;;;;;;14.09;46.55;101021.97;4935343;29;20456;-64
2024/02/29 06:38:31;;;;;;;8.68;4.93;;;;;;;14.15;46.79;101037.56;4936511;29;20054;-64
2024/02/29 06:40:56;;;;;;;10.27;5.50;;;;;;;14.14;47.77;101034.00;4935523;29;20110;-63
2024/02/29 06:43:22;;;;;;;11.68;4.80;;;;;;;14.14;46.47;101039.41;4935195;29;20036;-63
2024/02/29 06:45:48;;;;;;;10.43;4.22;;;;;;;14.16;46.49;101036.53;4919350;29;20059;-65
2024/02/29 06:48:17;;;;;;;10.00;4.20;;;;;;;14.15;46.04;101024.94;4936426;29;20118;-64
2024/02/29 06:50:43;;;;;;;9.82;4.15;;;;;;;14.17;45.85;101022.94;4919163;29;20118;-63
2024/02/29 06:53:09;;;;;;;12.07;4.30;;;;;;;14.19;47.83;101034.41;4936288;29;20128;-65
2024/02/29 06:55:35;;;;;;;10.60;5.18;;;;;;;14.20;47.46;101019.97;4919311;29;20385;-63
2024/02/29 06:58:02;;;;;;;9.85;4.90;;;;;;;14.22;46.44;101017.09;4919079;29;20046;-64
2024/02/29 07:00:28;;;;;;;9.98;4.45;;;;;;;14.22;45.99;101015.25;4934814;29;20035;-63
2024/02/29 07:02:53;;;;;;;10.52;4.65;;;;;;;14.22;47.51;101019.81;4934883;29;20496;-64
2024/02/29 07:05:18;;;;;;;10.25;4.68;;;;;;;14.26;47.44;101022.06;4935077;29;20066;-63
2024/02/29 07:07:44;;;;;;;13.90;4.70;;;;;;;14.26;46.92;101014.00;4935180;29;20575;-63
2024/02/29 07:10:10;;;;;;;8.07;4.97;;;;;;;14.28;46.80;101006.59;4934928;29;20167;-63
2024/02/29 07:12:36;;;;;;;11.48;4.50;;;;;;;14.32;46.73;101005.31;4936470;29;20035;-64
2024/02/29 07:15:02;;;;;;;8.00;4.70;;;;;;;14.34;46.42;101002.50;4939050;29;20042;-63
2024/02/29 07:17:29;;;;;;;10.52;4.47;;;;;;;14.36;47.86;101001.34;4938346;29;20051;-64
2024/02/29 07:19:54;;;;;;;9.30;4.63;;;;;;;14.39;47.49;101001.03;4939318;29;20039;-63
2024/02/29 07:22:20;;;;;;;11.77;4.43;;;;;;;14.42;47.07;100989.97;4938493;29;20039;-63
2024/02/29 07:24:45;;;;;;;10.25;4.13;;;;;;;14.45;47.53;101000.44;4936392;29;20087;-63
2024/02/29 07:27:11;;;;;;;11.93;4.78;;;;;;;14.47;46.94;101003.84;4934845;29;20040;-63
2024/02/29 07:29:36;;;;;;;7.85;4.43;;;;;;;14.49;47.35;100990.19;4934488;29;20027;-63
2024/02/29 07:32:01;;;;;;;6.88;4.20;;;;;;;14.52;46.48;100984.50;4935792;29;20040;-63
2024/02/29 07:34:27;;;;;;;13.88;5.80;;;;;;;14.55;47.28;100985.06;4934380;29;20131;-63
2024/02/29 07:36:52;;;;;;;10.18;4.13;;;;;;;14.60;46.63;100981.06;4918785;29;20028;-63
2024/02/29 07:39:17;;;;;;;11.35;4.22;;;;;;;14.60;47.45;100970.28;4934524;29;20048;-63
2024/02/29 07:41:43;;;;;;;11.45;4.63;;;;;;;14.66;47.53;100969.66;4918619;29;20043;-63
2024/02/29 07:44:09;;;;;;;11.05;4.43;;;;;;;14.72;46.45;100977.16;4934310;29;20594;-63
2024/02/29 07:46:35;;;;;;;9.57;3.97;;;;;;;14.76;47.36;100970.47;4935571;29;20036;-63
2024/02/29 07:49:00;;;;;;;12.30;4.90;;;;;;;14.85;45.98;100974.94;4935563;29;20027;-63
2024/02/29 07:51:26;;;;;;;10.27;3.95;;;;;;;14.90;46.02;100975.31;4935544;29;20039;-63
2024/02/29 07:53:51;;;;;;;8.20;3.78;;;;;;;14.90;46.91;100967.25;4934366;29;20083;-63
2024/02/29 07:56:17;;;;;;;8.95;3.58;;;;;;;14.93;47.25;100967.78;4934543;29;20594;-63
2024/02/29 07:58:42;;;;;;;9.63;3.85;;;;;;;15.00;45.69;100957.22;4918490;29;20412;-63
2024/02/29 08:01:07;;;;;;;8.40;3.63;;;;;;;15.00;46.11;100968.00;4918481;29;20032;-63
2024/02/29 08:03:33;;;;;;;5.90;3.42;;;;;;;15.01;46.45;100970.56;4918678;29;20032;-63
2024/02/29 08:05:58;;;;;;;8.68;4.85;;;;;;;15.06;46.72;100967.38;4934554;29;20063;-63
2024/02/29 08:08:23;;;;;;;9.60;3.80;;;;;;;15.10;45.86;100960.69;4935624;29;20604;-63
2024/02/29 08:10:49;;;;;;;7.95;4.45;;;;;;;15.18;46.45;100958.06;4935867;29;20067;-63
2024/02/29 08:13:14;;;;;;;12.05;4.43;;;;;;;15.23;45.76;100947.63;4918380;29;20055;-63
2024/02/29 08:15:40;;;;;;;8.20;3.53;;;;;;;15.27;46.44;100954.41;4918658;29;20467;-63
2024/02/29 08:18:06;;;;;;;5.57;3.50;;;;;;;15.33;46.29;100961.03;4936260;29;20388;-63
2024/02/29 08:20:31;;;;;;;5.82;3.10;;;;;;;15.34;45.93;100950.09;4939347;29;20067;-64
2024/02/29 08:22:57;;;;;;;9.07;4.45;;;;;;;15.40;45.94;100949.47;4937816;29;20459;-63
2024/02/29 08:25:28;;;;;;;7.85;3.60;;;;;;;15.49;45.79;100939.59;4939194;29;20400;-64
2024/02/29 08:27:54;;;;;;;9.32;3.72;;;;;;;15.52;46.07;100948.22;4922497;29;20114;-63
2024/02/29 08:30:20;;;;;;;7.15;3.83;;;;;;;15.55;45.18;100942.50;4939020;29;20063;-63
2024/02/29 08:32:47;;;;;;;6.25;3.72;;;;;;;15.62;45.33;100938.19;4938761;29;20035;-64
2024/02/29 08:35:12;;;;;;;10.48;4.25;;;;;;;15.73;46.45;100935.22;4938780;29;20044;-64
2024/02/29 08:37:38;;;;;;;8.57;3.40;;;;;;;15.85;45.95;100934.94;4937511;29;20067;-63
2024/02/29 08:40:04;;;;;;;11.80;4.07;;;;;;;15.91;45.96;100920.78;4937404;29;20036;-64
2024/02/29 08:42:30;;;;;;;7.78;3.38;;;;;;;16.02;45.18;100918.66;4937751;29;20046;-64
2024/02/29 08:44:56;;;;;;;5.72;3.05;;;;;;;16.13;45.92;100928.31;4937507;29;20040;-64
2024/02/29 08:47:21;;;;;;;5.35;2.92;;;;;;;16.26;45.88;100923.28;4921860;29;20078;-63
2024/02/29 08:49:47;;;;;;;9.30;3.80;;;;;;;16.36;45.12;100921.28;4937171;29;20059;-64
2024/02/29 08:52:12;;;;;;;7.07;3.53;;;;;;;16.49;45.19;100920.84;4938436;29;20115;-64
2024/02/29 08:54:37;;;;;;;8.70;3.50;;;;;;;16.67;45.31;100918.88;4937640;29;20407;-64
2024/02/29 08:57:04;;;;;;;7.80;3.40;;;;;;;16.81;44.52;100916.38;4937300;29;20116;-64
2024/02/29 08:59:30;;;;;;;9.25;2.97;;;;;;;16.92;45.21;100917.88;4938049;29;20438;-64
2024/02/29 09:01:56;;;;;;;6.88;2.95;;;;;;;17.05;44.12;100912.00;4937116;29;20171;-64
2024/02/29 09:04:22;;;;;;;6.85;3.38;;;;;;;17.12;44.57;100907.59;4921369;29;20075;-64
2024/02/29 09:06:47;;;;;;;6.40;3.25;;;;;;;17.18;44.41;100917.75;4921255;29;20119;-64
2024/02/29 09:09:13;;;;;;;8.52;3.30;;;;;;;17.18;43.98;100901.50;4921114;29;20492;-64
2024/02/29 09:11:38;;;;;;;9.55;3.40;;;;;;;17.14;44.03;100902.88;4937222;29;20032;-64
2024/02/29 09:14:04;;;;;;;5.32;2.92;;;;;;;17.17;44.40;100892.53;4936992;29;20415;-65
2024/02/29 09:16:29;;;;;;;4.88;3.03;;;;;;;17.22;44.07;100900.16;4920805;29;20039;-64
2024/02/29 09:18:56;;;;;;;8.48;2.50;;;;;;;17.25;44.54;100880.88;4936393;29;20043;-64
2024/02/29 09:21:21;;;;;;;7.30;2.88;;;;;;;17.33;44.07;100883.56;4936855;29;20043;-64
2024/02/29 09:23:49;;;;;;;7.70;3.10;;;;;;;17.38;44.69;100881.16;4936856;29;20535;-64
2024/02/29 09:26:16;;;;;;;4.32;2.53;;;;;;;17.39;44.73;100880.16;4936943;29;20103;-64
2024/02/29 09:28:42;;;;;;;4.43;2.70;;;;;;;17.40;43.61;100871.00;4919803;29;20095;-63
2024/02/29 09:31:07;;;;;;;5.50;2.65;;;;;;;17.39;44.84;100866.63;4920558;29;20036;-63
2024/02/29 09:33:33;;;;;;;4.82;2.55;;;;;;;17.44;44.33;100869.66;4936555;29;20035;-63
2024/02/29 09:35:58;;;;;;;3.95;2.63;;;;;;;17.48;44.66;100865.56;4936389;29;20087;-63
2024/02/29 09:38:24;;;;;;;7.65;2.72;;;;;;;17.47;44.23;100863.91;4920584;29;20044;-64
2024/02/29 09:40:50;;;;;;;7.82;3.20;;;;;;;17.44;43.77;100861.53;4936564;29;20043;-64
2024/02/29 09:43:16;;;;;;;6.10;2.95;;;;;;;17.45;44.85;100855.06;4936620;29;20035;-63
2024/02/29 09:45:42;;;;;;;5.63;3.17;;;;;;;17.43;44.85;100847.16;4936496;29;20416;-64
2024/02/29 09:48:10;;;;;;;8.93;3.28;;;;;;;17.46;45.09;100857.63;4936912;29;20046;-63
2024/02/29 09:50:36;;;;;;;9.68;2.97;;;;;;;17.46;44.72;100854.91;4936274;29;20046;-63
2024/02/29 09:53:02;;;;;;;6.18;3.22;;;;;;;17.47;44.60;100853.88;4936465;29;20036;-64
2024/02/29 09:55:29;;;;;;;6.90;2.55;;;;;;;17.51;43.84;100850.84;4920786;29;20087;-63
2024/02/29 09:57:56;;;;;;;6.50;2.42;;;;;;;17.53;44.59;100855.09;4936593;29;20578;-64
2024/02/29 10:00:22;;;;;;;7.82;2.95;;;;;;;17.53;43.93;100846.97;4936844;29;20038;-64
2024/02/29 10:02:48;;;;;;;5.80;3.03;;;;;;;17.55;44.55;100844.94;4936887;29;20114;-64
2024/02/29 10:05:14;;;;;;;5.60;2.58;;;;;;;17.56;44.76;100846.63;4936544;29;20102;-64
2024/02/29 10:07:47;;;;;;;3.83;2.92;;;;;;;17.57;44.17;100842.91;4935775;29;20491;-66
2024/02/29 10:10:13;;;;;;;5.63;2.40;;;;;;;17.57;43.96;100845.59;4935957;29;20046;-64
2024/02/29 10:12:39;;;;;;;5.85;2.70;;;;;;;17.59;44.67;100840.84;4936235;29;20024;-63
2024/02/29 10:15:06;;;;;;;3.97;2.28;;;;;;;17.57;44.75;100834.78;4935901;29;20023;-64
2024/02/29 10:17:34;;;;;;;6.68;2.40;;;;;;;17.56;44.95;100835.78;4937369;29;20027;-63
2024/02/29 10:20:00;;;;;;;3.30;2.40;;;;;;;17.59;43.93;100830.00;4951771;29;20057;-64
2024/02/29 10:22:25;;;;;;;4.45;2.53;;;;;;;17.61;44.72;100833.41;4935926;29;20034;-63
2024/02/29 10:24:51;;;;;;;5.40;2.35;;;;;;;17.62;44.48;100829.66;4937329;28;20027;-64
2024/02/29 10:27:17;;;;;;;3.80;2.60;;;;;;;17.64;45.00;100822.25;4935914;29;20078;-63
2024/02/29 10:29:42;;;;;;;8.63;2.60;;;;;;;17.62;44.43;100828.81;4935394;29;20094;-64
2024/02/29 10:32:08;;;;;;;8.15;2.15;;;;;;;17.57;44.58;100826.66;4935597;29;20093;-64
2024/02/29 10:34:35;;;;;;;5.40;2.53;;;;;;;17.56;44.92;100830.38;4935426;29;20047;-64
2024/02/29 10:37:01;;;;;;;5.78;2.40;;;;;;;17.51;44.28;100821.88;4935627;29;20118;-64
2024/02/29 10:39:27;;;;;;;5.25;2.90;;;;;;;17.48;44.53;100816.81;4935438;29;20123;-64
2024/02/29 10:41:55;;;;;;;6.15;2.67;;;;;;;17.46;43.95;100814.28;4936637;29;20036;-64
2024/02/29 10:44:21;;;;;;;3.83;2.20;;;;;;;17.47;44.68;100815.16;4935537;29;20388;-64
2024/02/29 10:46:49;;;;;;;8.38;2.88;;;;;;;17.46;44.37;100824.28;4935543;29;20027;-63
2024/02/29 10:49:35;;;;;;;5.65;2.70;;;;;;;17.46;44.97;100827.84;4936883;29;20507;-65
2024/02/29 10:52:07;;;;;;;4.28;2.47;;;;;;;17.50;44.60;100819.38;4935206;29;20039;-64
2024/02/29 10:54:32;;;;;;;3.38;2.03;;;;;;;17.53;43.90;100817.16;4935621;29;20039;-65
2024/02/29 10:56:58;;;;;;;4.97;2.80;;;;;;;17.56;44.32;100811.41;4936894;29;20500;-64
2024/02/29 10:59:25;;;;;;;8.65;2.95;;;;;;;17.62;43.93;100816.13;4935400;29;20043;-64
2024/02/29 11:01:56;;;;;;;4.03;2.50;;;;;;;17.63;44.23;100814.28;4935520;29;20525;-64
2024/02/29 11:04:21;;;;;;;7.22;2.95;;;;;;;17.61;44.17;100819.88;4935387;29;20051;-65
2024/02/29 11:06:47;;;;;;;5.13;2.67;;;;;;;17.64;44.48;100805.97;4935314;29;20039;-65
2024/02/29 11:09:20;;;;;;;5.20;3.13;;;;;;;17.70;43.84;100805.25;4935186;29;20392;-65
2024/02/29 11:11:47;;;;;;;7.45;2.78;;;;;;;17.77;44.42;100800.84;4935415;29;20054;-65
2024/02/29 11:14:15;;;;;;;4.30;2.83;;;;;;;17.83;44.34;100800.13;4936379;29;20123;-65